Pagina principale
METAR-TAF:

METAR-TAF

Aeroporti :

Sigonella, Italia

Base aerea di Sigonella

latitudine: 37-24N, longitudine: 014-55E, altezza: 22 m

Osservazione

Il bollettino è stato emesso 44 minuti fa, alle 12:55 UTC
Vento 14 kt da est
Temperature 26°C
Umidità 39%
Pressione 1011 hPa
Visibilità 10 km o più
Poco nuvoloso ad un'altezza di 2000 ft
Nubi sparse ad un'altezza di 7000 ft

METAR: LICZ 191255Z 08014KT 9999 FEW020 SCT070 26/11 Q1011 RMK SCT VIS MIN 9999 WIND THR28 09012KT WIND THR10 09013KT A2988 BLU

Ora: 15:39 (13:39 UTC)

Previsione

Il bollettino è stato emesso 2 ore e 39 minuti fa, alle 11:00 UTC
Previsione valida dal 19 alle 12 UTC al 19 alle 21 UTC
Vento 10 kt da est
Visibilità 10 km o più
Nubi sparse ad un'altezza di 2000 ft
Nubi sparse ad un'altezza di 6000 ft
Temporaneamente
dal 19 alle 12 UTC al 19 alle 16 UTC
Vento 15 kt da est con raffiche fino a 25 kt

TAF: LICZ 191100Z 1912/1921 08010KT 9999 SCT020 SCT060 TEMPO 1912/1916 08015G25KT

Osservazioni e previsioni meteorologiche di più di 4000 aeroporti (messaggi METAR e TAF).

Le stazioni disponibili sono rappresentate dai dischi gialli e rossi sulla carta.

Puntare il mouse per vedere il nome della stazione.

Clicca sopra per visualizzare le osservazioni e previsioni meteorologiche.

Per cambiare la mappa : fare clic sui pulsanti verdi con una croce nera per ingrandire, il pulsante verde con un trattino per diminuire, o sulla freccia verde per le mappe adiacenti.


METAR-TAF: